Time;durP1;ratioP1;P1;durP2;ratioP2;P2;SDS_P1;SDS_P2;PMS_P1;PMS_P2;Temp;Humidity;BMP_temperature;BMP_pressure;BME280_temperature;BME280_humidity;BME280_pressure;Samples;Min_cycle;Max_cycle;Signal;HPM_P1;HPM_P2
2023/12/13 08:44:33;;;;;;;39.93;15.23;;;;;;;;;;5066086;27;1376437;-67
2023/12/13 08:47:01;;;;;;;39.37;14.47;;;;;;;;;;5075862;27;87671;-67
2023/12/13 08:49:29;;;;;;;32.40;14.97;;;;;;;;;;5077864;27;87487;-67
2023/12/13 08:51:58;;;;;;;30.00;13.50;;;;;;;;;;5076308;27;89671;-67
2023/12/13 08:54:27;;;;;;;22.57;12.00;;;;;;;;;;5073917;27;88832;-67
2023/12/13 08:56:55;;;;;;;33.23;13.87;;;;;;;;;;5076955;27;87739;-67
2023/12/13 08:59:24;;;;;;;25.67;11.60;;;;;;;;;;5079114;27;87677;-66
2023/12/13 09:01:53;;;;;;;24.43;10.90;;;;;;;;;;5077614;27;89645;-66
2023/12/13 09:04:22;;;;;;;20.87;11.70;;;;;;;;;;5065051;27;88984;-67
2023/12/13 09:06:50;;;;;;;26.97;10.60;;;;;;;;;;5087297;27;87523;-67
2023/12/13 09:09:18;;;;;;;22.13;9.33;;;;;;;;;;5076755;27;88514;-69
2023/12/13 09:11:47;;;;;;;24.57;10.20;;;;;;;;;;5072821;27;89700;-69
2023/12/13 09:14:16;;;;;;;17.30;9.70;;;;;;;;;;5079833;27;87909;-69
2023/12/13 09:16:44;;;;;;;14.03;8.40;;;;;;;;;;5077170;27;87736;-69
2023/12/13 09:19:14;;;;;;;19.03;7.50;;;;;;;;;;5092987;27;87471;-67
2023/12/13 09:21:43;;;;;;;22.83;8.03;;;;;;;;;;5093928;27;90533;-73
2023/12/13 09:24:12;;;;;;;10.13;5.87;;;;;;;;;;5075100;27;91777;-74
2023/12/13 09:26:40;;;;;;;15.50;7.30;;;;;;;;;;5078201;27;87843;-73
2023/12/13 09:29:08;;;;;;;11.03;5.03;;;;;;;;;;5069217;27;87691;-75
2023/12/13 09:31:37;;;;;;;12.20;6.03;;;;;;;;;;5075273;27;89609;-72
2023/12/13 09:34:06;;;;;;;12.87;5.70;;;;;;;;;;5077063;27;89882;-70
2023/12/13 09:36:36;;;;;;;8.10;4.60;;;;;;;;;;5080468;27;88920;-75
2023/12/13 09:39:04;;;;;;;7.73;4.97;;;;;;;;;;5076667;27;87525;-72
2023/12/13 09:41:33;;;;;;;4.73;3.43;;;;;;;;;;5074249;27;89612;-74
2023/12/13 09:44:01;;;;;;;8.00;3.77;;;;;;;;;;5070195;27;88997;-72
2023/12/13 09:46:30;;;;;;;5.30;3.47;;;;;;;;;;5066177;27;87493;-71
2023/12/13 09:48:58;;;;;;;6.13;3.03;;;;;;;;;;5060008;27;88274;-72
2023/12/13 09:51:27;;;;;;;9.97;3.37;;;;;;;;;;5068182;27;92567;-73
2023/12/13 09:53:57;;;;;;;3.90;2.53;;;;;;;;;;5060885;27;89042;-71
2023/12/13 09:56:25;;;;;;;6.23;2.67;;;;;;;;;;5063952;27;87405;-71
2023/12/13 09:58:53;;;;;;;4.90;2.23;;;;;;;;;;5062664;27;88358;-72
2023/12/13 10:01:22;;;;;;;6.30;2.17;;;;;;;;;;5053084;27;89693;-69
2023/12/13 10:03:50;;;;;;;5.77;2.37;;;;;;;;;;5064165;27;89137;-70
2023/12/13 10:06:19;;;;;;;11.37;2.80;;;;;;;;;;5068437;27;87589;-70
2023/12/13 10:08:54;;;;;;;3.97;2.20;;;;;;;;;;5076619;27;87912;-70
2023/12/13 10:11:24;;;;;;;6.13;2.27;;;;;;;;;;5062584;27;89586;-70
2023/12/13 10:13:52;;;;;;;3.53;2.43;;;;;;;;;;5067781;27;88928;-70
2023/12/13 10:16:20;;;;;;;3.77;1.70;;;;;;;;;;5068525;27;87667;-69
2023/12/13 10:18:49;;;;;;;2.57;2.00;;;;;;;;;;5065794;27;87804;-71
2023/12/13 10:21:17;;;;;;;2.97;2.30;;;;;;;;;;5063763;27;89670;-70
2023/12/13 10:23:46;;;;;;;5.50;2.37;;;;;;;;;;5066352;27;89401;-70
2023/12/13 10:26:14;;;;;;;3.23;2.20;;;;;;;;;;5062909;27;89272;-70
2023/12/13 10:28:45;;;;;;;1.97;1.73;;;;;;;;;;5082128;27;88075;-69
2023/12/13 10:31:14;;;;;;;6.83;1.90;;;;;;;;;;5070655;27;89766;-68
2023/12/13 10:33:42;;;;;;;8.60;1.80;;;;;;;;;;5063147;27;89142;-68
2023/12/13 10:36:11;;;;;;;2.87;2.17;;;;;;;;;;5060605;27;87445;-68
2023/12/13 10:38:39;;;;;;;12.07;2.53;;;;;;;;;;5053645;27;87681;-68
2023/12/13 10:41:08;;;;;;;1.83;1.70;;;;;;;;;;5061474;27;89574;-68
2023/12/13 10:43:36;;;;;;;2.17;1.57;;;;;;;;;;5062231;27;87875;-68
2023/12/13 10:46:06;;;;;;;5.37;1.83;;;;;;;;;;5058031;27;88264;-67
2023/12/13 10:48:35;;;;;;;2.37;1.83;;;;;;;;;;5057258;27;87618;-67
2023/12/13 10:51:04;;;;;;;4.40;2.20;;;;;;;;;;5062812;27;89706;-67
2023/12/13 10:53:32;;;;;;;5.67;1.90;;;;;;;;;;5060652;27;88024;-68
2023/12/13 10:56:01;;;;;;;5.37;3.90;;;;;;;;;;5054225;27;87620;-68
2023/12/13 10:58:29;;;;;;;9.67;5.57;;;;;;;;;;5067364;27;87705;-68
2023/12/13 11:00:58;;;;;;;11.73;5.67;;;;;;;;;;5063661;27;89823;-68
2023/12/13 11:03:29;;;;;;;12.07;6.17;;;;;;;;;;5062555;27;87539;-68
2023/12/13 11:05:57;;;;;;;10.17;6.53;;;;;;;;;;5055283;27;87468;-69
2023/12/13 11:08:25;;;;;;;12.47;5.83;;;;;;;;;;5067936;27;87636;-68
2023/12/13 11:11:01;;;;;;;7.57;5.23;;;;;;;;;;5057699;27;89701;-68
2023/12/13 11:13:29;;;;;;;10.97;6.20;;;;;;;;;;5062714;27;89038;-68
2023/12/13 11:15:58;;;;;;;11.03;6.30;;;;;;;;;;5063693;27;87996;-69
2023/12/13 11:18:30;;;;;;;10.07;6.03;;;;;;;;;;5065821;27;87600;-69
2023/12/13 11:21:00;;;;;;;8.00;4.23;;;;;;;;;;5047748;27;89703;-69
2023/12/13 11:23:30;;;;;;;12.30;5.77;;;;;;;;;;5045735;27;89172;-68
2023/12/13 11:25:58;;;;;;;12.00;5.10;;;;;;;;;;5052781;27;87555;-68
2023/12/13 11:28:26;;;;;;;7.23;4.70;;;;;;;;;;5055105;27;87540;-68
2023/12/13 11:30:55;;;;;;;7.87;5.07;;;;;;;;;;5049601;27;89704;-67
2023/12/13 11:33:24;;;;;;;8.37;4.80;;;;;;;;;;5051704;27;88989;-67
2023/12/13 11:35:54;;;;;;;6.83;4.83;;;;;;;;;;5054739;27;87563;-68
2023/12/13 11:38:22;;;;;;;9.10;5.07;;;;;;;;;;5064309;27;88623;-67
2023/12/13 11:40:51;;;;;;;8.03;4.50;;;;;;;;;;5060274;27;93077;-68
2023/12/13 11:43:19;;;;;;;8.80;3.90;;;;;;;;;;5062327;27;89036;-68
2023/12/13 11:45:51;;;;;;;8.93;4.13;;;;;;;;;;5071440;27;87409;-67
2023/12/13 11:48:19;;;;;;;5.50;4.10;;;;;;;;;;5064758;27;87603;-68
2023/12/13 11:50:47;;;;;;;6.27;3.30;;;;;;;;;;5073643;27;89744;-68
2023/12/13 11:53:17;;;;;;;6.23;3.37;;;;;;;;;;5071461;27;88935;-68
2023/12/13 11:55:46;;;;;;;6.00;3.40;;;;;;;;;;5067057;27;87709;-68
2023/12/13 11:58:15;;;;;;;8.60;3.70;;;;;;;;;;5073057;27;87703;-67
2023/12/13 12:00:44;;;;;;;5.57;3.37;;;;;;;;;;5063584;27;89773;-67
2023/12/13 12:03:12;;;;;;;3.83;3.10;;;;;;;;;;5069500;27;89007;-68
2023/12/13 12:05:42;;;;;;;3.73;2.93;;;;;;;;;;5061357;27;88459;-69
2023/12/13 12:08:11;;;;;;;5.20;3.23;;;;;;;;;;5066128;27;87416;-66
2023/12/13 12:10:43;;;;;;;5.47;3.33;;;;;;;;;;5056882;27;89482;-74
2023/12/13 12:13:12;;;;;;;4.63;3.10;;;;;;;;;;5063161;27;88938;-71
2023/12/13 12:15:44;;;;;;;4.30;2.60;;;;;;;;;;5050071;27;87590;-70
2023/12/13 12:18:12;;;;;;;3.90;2.67;;;;;;;;;;5044195;27;87649;-73
2023/12/13 12:20:41;;;;;;;8.10;3.50;;;;;;;;;;5051160;27;90312;-69
2023/12/13 12:23:10;;;;;;;122.60;22.60;;;;;;;;;;5046262;27;89381;-68
2023/12/13 12:25:42;;;;;;;149.97;29.67;;;;;;;;;;5046862;27;89780;-72
2023/12/13 12:28:12;;;;;;;65.73;15.47;;;;;;;;;;5052594;27;87544;-75
2023/12/13 12:30:42;;;;;;;179.20;64.77;;;;;;;;;;5057468;27;89638;-73
2023/12/13 12:33:13;;;;;;;162.77;64.77;;;;;;;;;;5047262;27;89026;-74
2023/12/13 12:35:42;;;;;;;132.87;48.03;;;;;;;;;;5045276;27;89194;-72
2023/12/13 12:38:10;;;;;;;101.17;38.00;;;;;;;;;;5045741;27;87578;-72
2023/12/13 12:40:38;;;;;;;72.33;30.83;;;;;;;;;;5041123;27;89477;-70
2023/12/13 12:43:07;;;;;;;58.03;25.53;;;;;;;;;;5057918;27;89154;-67
2023/12/13 12:45:37;;;;;;;58.53;20.70;;;;;;;;;;5059702;27;87532;-67
2023/12/13 12:48:05;;;;;;;40.80;18.90;;;;;;;;;;5060774;27;88777;-70
2023/12/13 12:50:34;;;;;;;32.83;13.80;;;;;;;;;;5041867;27;89935;-69
2023/12/13 12:53:02;;;;;;;28.40;12.37;;;;;;;;;;5057081;27;89058;-71
2023/12/13 12:55:31;;;;;;;21.93;10.77;;;;;;;;;;5069077;27;87567;-68
2023/12/13 12:57:59;;;;;;;14.63;7.20;;;;;;;;;;5063299;27;87457;-70
2023/12/13 13:00:28;;;;;;;10.10;6.10;;;;;;;;;;5068558;27;89708;-67
2023/12/13 13:02:57;;;;;;;7.83;4.47;;;;;;;;;;5067658;27;89059;-67
2023/12/13 13:05:26;;;;;;;5.63;4.00;;;;;;;;;;5057471;27;87555;-68
2023/12/13 13:07:54;;;;;;;8.80;3.77;;;;;;;;;;5061928;27;87454;-66
2023/12/13 13:10:23;;;;;;;6.73;3.80;;;;;;;;;;5048260;27;90422;-69
2023/12/13 13:12:51;;;;;;;8.80;2.60;;;;;;;;;;5062018;27;89173;-69
2023/12/13 13:15:22;;;;;;;11.07;3.10;;;;;;;;;;5072831;27;87601;-68
2023/12/13 13:17:51;;;;;;;5.37;2.70;;;;;;;;;;5050245;27;87507;-67
2023/12/13 13:20:22;;;;;;;2.77;1.90;;;;;;;;;;5072496;27;89702;-69
2023/12/13 13:22:49;;;;;;;3.33;2.03;;;;;;;;;;5063887;27;88229;-69
2023/12/13 13:25:18;;;;;;;4.63;1.77;;;;;;;;;;5063835;27;87482;-68
2023/12/13 13:27:47;;;;;;;4.20;1.70;;;;;;;;;;5073350;27;87601;-71
2023/12/13 13:30:16;;;;;;;2.83;1.53;;;;;;;;;;5062390;27;87804;-71
2023/12/13 13:32:44;;;;;;;2.67;1.53;;;;;;;;;;5073513;27;88904;-71
2023/12/13 13:35:13;;;;;;;3.87;1.90;;;;;;;;;;5066091;27;87523;-72
2023/12/13 13:37:43;;;;;;;3.43;1.97;;;;;;;;;;5069656;27;87748;-71
2023/12/13 13:40:12;;;;;;;3.70;1.47;;;;;;;;;;5077800;27;89812;-72
2023/12/13 13:42:41;;;;;;;1.53;1.43;;;;;;;;;;5067263;27;89137;-70
2023/12/13 13:45:10;;;;;;;2.57;1.10;;;;;;;;;;5066616;27;89311;-72
2023/12/13 13:47:38;;;;;;;1.70;1.50;;;;;;;;;;5061802;27;87649;-73
2023/12/13 13:50:09;;;;;;;3.50;1.40;;;;;;;;;;5072461;27;89702;-74
2023/12/13 13:52:38;;;;;;;1.60;1.40;;;;;;;;;;5063751;27;89479;-73
2023/12/13 13:55:09;;;;;;;1.50;1.40;;;;;;;;;;5058503;27;87507;-73
2023/12/13 13:57:38;;;;;;;5.50;1.47;;;;;;;;;;5073510;27;87500;-73
2023/12/13 14:00:10;;;;;;;5.63;1.80;;;;;;;;;;5069492;27;89737;-72
2023/12/13 14:02:38;;;;;;;2.27;1.20;;;;;;;;;;5063237;27;91724;-67
2023/12/13 14:05:08;;;;;;;1.13;1.10;;;;;;;;;;5062529;27;87646;-68
2023/12/13 14:07:37;;;;;;;1.80;1.27;;;;;;;;;;5071289;27;87527;-71
2023/12/13 14:10:07;;;;;;;2.67;1.20;;;;;;;;;;5072788;27;89606;-70
2023/12/13 14:12:36;;;;;;;2.33;1.50;;;;;;;;;;5072557;27;89191;-69
2023/12/13 14:15:05;;;;;;;1.37;1.00;;;;;;;;;;5066562;27;87502;-70
2023/12/13 14:17:33;;;;;;;2.27;1.47;;;;;;;;;;5068211;27;87645;-69
2023/12/13 14:20:04;;;;;;;2.40;1.20;;;;;;;;;;5064037;27;89778;-70
2023/12/13 14:22:33;;;;;;;1.90;1.63;;;;;;;;;;5075042;27;87919;-71
2023/12/13 14:25:01;;;;;;;2.07;0.97;;;;;;;;;;5071504;27;87452;-71
2023/12/13 14:27:29;;;;;;;3.07;1.43;;;;;;;;;;5064031;27;87637;-71
2023/12/13 14:29:59;;;;;;;6.43;2.70;;;;;;;;;;5061439;27;89685;-71
2023/12/13 14:32:28;;;;;;;1.87;1.67;;;;;;;;;;5064470;27;91103;-72
2023/12/13 14:34:56;;;;;;;2.80;1.53;;;;;;;;;;5065907;27;87599;-70
2023/12/13 14:37:25;;;;;;;1.77;1.47;;;;;;;;;;5075757;27;87702;-69
2023/12/13 14:39:53;;;;;;;1.80;1.47;;;;;;;;;;5080096;27;89626;-70
2023/12/13 14:42:22;;;;;;;2.77;1.90;;;;;;;;;;5058318;27;89122;-70
2023/12/13 14:44:50;;;;;;;3.73;1.50;;;;;;;;;;5070303;27;87410;-71
2023/12/13 14:47:20;;;;;;;3.90;1.60;;;;;;;;;;5068943;27;87516;-70
2023/12/13 14:49:49;;;;;;;4.10;2.00;;;;;;;;;;5071631;27;89690;-71
2023/12/13 14:52:17;;;;;;;3.10;2.07;;;;;;;;;;5059655;27;89102;-70
2023/12/13 14:54:45;;;;;;;2.27;1.60;;;;;;;;;;5062632;27;87570;-71
2023/12/13 14:57:14;;;;;;;2.57;1.90;;;;;;;;;;5066637;27;87702;-71
2023/12/13 14:59:42;;;;;;;3.80;1.67;;;;;;;;;;5066223;27;89675;-71
2023/12/13 15:02:10;;;;;;;4.23;1.80;;;;;;;;;;5060267;27;87608;-72
2023/12/13 15:04:40;;;;;;;5.83;1.90;;;;;;;;;;5062215;27;87548;-70
2023/12/13 15:07:09;;;;;;;2.23;1.43;;;;;;;;;;5058987;27;87572;-69
2023/12/13 15:09:37;;;;;;;3.13;2.07;;;;;;;;;;5061330;27;89547;-70
2023/12/13 15:12:05;;;;;;;4.37;3.30;;;;;;;;;;5063819;27;89321;-70
2023/12/13 15:14:34;;;;;;;7.30;3.67;;;;;;;;;;5062284;27;87658;-70
2023/12/13 15:17:02;;;;;;;5.67;3.00;;;;;;;;;;5061624;27;87625;-71
2023/12/13 15:19:31;;;;;;;4.40;2.97;;;;;;;;;;5060024;27;89620;-71
2023/12/13 15:22:01;;;;;;;6.00;3.33;;;;;;;;;;5060719;27;89076;-71
2023/12/13 15:24:30;;;;;;;8.07;3.60;;;;;;;;;;5062859;27;87644;-69
2023/12/13 15:26:58;;;;;;;3.27;2.67;;;;;;;;;;5061344;27;87713;-72
2023/12/13 15:29:27;;;;;;;2.30;1.97;;;;;;;;;;5063412;27;89782;-71
2023/12/13 15:31:56;;;;;;;5.77;2.87;;;;;;;;;;5057061;27;89103;-73
2023/12/13 15:34:24;;;;;;;3.60;2.73;;;;;;;;;;5057678;27;88046;-73
2023/12/13 15:36:53;;;;;;;5.37;2.70;;;;;;;;;;5060105;27;87382;-73
2023/12/13 15:39:22;;;;;;;3.83;2.87;;;;;;;;;;5060116;27;89971;-73
2023/12/13 15:41:51;;;;;;;3.77;2.93;;;;;;;;;;5063309;27;87808;-73
2023/12/13 15:44:19;;;;;;;6.83;2.87;;;;;;;;;;5063436;27;87522;-74
2023/12/13 15:46:48;;;;;;;4.47;2.80;;;;;;;;;;5063623;27;87654;-73
2023/12/13 15:49:16;;;;;;;3.77;2.90;;;;;;;;;;5065217;27;89783;-73
2023/12/13 15:51:46;;;;;;;6.10;2.53;;;;;;;;;;5064440;27;89081;-72
2023/12/13 15:54:14;;;;;;;4.40;2.77;;;;;;;;;;5061912;27;87610;-74
2023/12/13 15:56:44;;;;;;;2.47;2.17;;;;;;;;;;5063506;27;87540;-73
2023/12/13 15:59:12;;;;;;;6.33;2.97;;;;;;;;;;5060678;27;89679;-73
2023/12/13 16:01:43;;;;;;;2.50;2.07;;;;;;;;;;5064838;27;87662;-73
2023/12/13 16:04:12;;;;;;;3.87;2.50;;;;;;;;;;5060242;27;87352;-74
2023/12/13 16:06:41;;;;;;;4.10;2.50;;;;;;;;;;5063353;27;87631;-71
2023/12/13 16:09:09;;;;;;;3.60;2.37;;;;;;;;;;5063522;27;89644;-75
2023/12/13 16:11:37;;;;;;;5.57;2.40;;;;;;;;;;5064818;27;89016;-75
2023/12/13 16:14:07;;;;;;;3.40;2.23;;;;;;;;;;5063998;27;87719;-74
2023/12/13 16:16:36;;;;;;;5.27;2.50;;;;;;;;;;5058642;27;87602;-76
2023/12/13 16:19:04;;;;;;;2.87;2.43;;;;;;;;;;5063792;27;89332;-75
2023/12/13 16:21:33;;;;;;;2.30;2.10;;;;;;;;;;5064489;27;89266;-74
2023/12/13 16:24:02;;;;;;;4.90;2.77;;;;;;;;;;5059011;27;87779;-77
2023/12/13 16:26:31;;;;;;;2.70;2.43;;;;;;;;;;5063307;27;87585;-73
2023/12/13 16:28:59;;;;;;;4.03;2.17;;;;;;;;;;5058243;27;89998;-77
2023/12/13 16:31:30;;;;;;;3.40;2.50;;;;;;;;;;5063980;27;87861;-75
2023/12/13 16:33:58;;;;;;;6.87;2.53;;;;;;;;;;5063393;27;87432;-75
2023/12/13 16:36:27;;;;;;;3.00;2.40;;;;;;;;;;5062992;27;87754;-75
2023/12/13 16:38:55;;;;;;;3.43;2.00;;;;;;;;;;5062975;27;87627;-75
2023/12/13 16:41:24;;;;;;;5.50;2.77;;;;;;;;;;5065246;27;89087;-76
2023/12/13 16:43:52;;;;;;;5.97;3.20;;;;;;;;;;5060445;27;87406;-76
2023/12/13 16:46:22;;;;;;;3.70;2.90;;;;;;;;;;5065854;27;87557;-75
2023/12/13 16:48:52;;;;;;;4.40;2.70;;;;;;;;;;5064142;27;89539;-78
2023/12/13 16:51:21;;;;;;;6.80;3.17;;;;;;;;;;5067149;27;90625;-78
2023/12/13 16:53:50;;;;;;;3.90;3.20;;;;;;;;;;5068968;27;87473;-76
2023/12/13 16:56:19;;;;;;;7.30;2.33;;;;;;;;;;5069015;27;87498;-74
2023/12/13 16:58:48;;;;;;;2.87;2.37;;;;;;;;;;5069595;27;89798;-76
2023/12/13 17:01:16;;;;;;;2.73;2.10;;;;;;;;;;5069451;27;89018;-73
2023/12/13 17:03:48;;;;;;;3.40;2.40;;;;;;;;;;5070948;27;88959;-75
2023/12/13 17:06:19;;;;;;;4.07;2.73;;;;;;;;;;5067940;27;87418;-76
2023/12/13 17:08:48;;;;;;;3.53;2.60;;;;;;;;;;5054308;27;89543;-76
2023/12/13 17:11:16;;;;;;;2.40;2.20;;;;;;;;;;5063787;27;89585;-78
2023/12/13 17:13:45;;;;;;;2.80;2.10;;;;;;;;;;5048635;27;87613;-77
2023/12/13 17:16:14;;;;;;;3.33;2.00;;;;;;;;;;5051295;27;87519;-75
2023/12/13 17:18:42;;;;;;;4.23;2.57;;;;;;;;;;5061812;27;89717;-76
2023/12/13 17:21:11;;;;;;;2.97;2.30;;;;;;;;;;5062754;27;88731;-78
2023/12/13 17:23:41;;;;;;;2.50;2.00;;;;;;;;;;5062293;27;87374;-78
2023/12/13 17:26:09;;;;;;;4.93;2.33;;;;;;;;;;5050586;27;87832;-76
2023/12/13 17:28:38;;;;;;;3.97;1.97;;;;;;;;;;5062073;27;89789;-73
2023/12/13 17:31:06;;;;;;;2.43;2.20;;;;;;;;;;5062019;27;89178;-75
2023/12/13 17:33:35;;;;;;;3.60;2.23;;;;;;;;;;5048670;27;88436;-76
2023/12/13 17:36:04;;;;;;;3.20;2.37;;;;;;;;;;5060340;27;87535;-76
2023/12/13 17:38:32;;;;;;;3.23;2.50;;;;;;;;;;5061907;27;90051;-76
2023/12/13 17:41:05;;;;;;;3.40;2.40;;;;;;;;;;5062319;27;88611;-76
2023/12/13 17:43:33;;;;;;;3.17;2.87;;;;;;;;;;5080620;27;87822;-76
2023/12/13 17:46:02;;;;;;;3.07;2.70;;;;;;;;;;5081187;27;87693;-76
2023/12/13 17:48:30;;;;;;;7.03;2.73;;;;;;;;;;5080643;27;89612;-76
2023/12/13 17:50:58;;;;;;;3.93;2.60;;;;;;;;;;5081045;27;89063;-74
2023/12/13 17:53:27;;;;;;;7.03;2.73;;;;;;;;;;5080508;27;87559;-75
2023/12/13 17:55:55;;;;;;;4.43;2.67;;;;;;;;;;5075063;27;88775;-74
2023/12/13 17:58:25;;;;;;;4.13;2.53;;;;;;;;;;5056620;27;91651;-76
2023/12/13 18:00:54;;;;;;;2.70;2.50;;;;;;;;;;5065823;27;90993;-74
2023/12/13 18:03:23;;;;;;;4.30;2.90;;;;;;;;;;5060801;27;87569;-76
2023/12/13 18:05:51;;;;;;;4.00;2.70;;;;;;;;;;5081882;27;87577;-76
2023/12/13 18:08:20;;;;;;;6.77;2.87;;;;;;;;;;5081807;27;89664;-74
2023/12/13 18:10:48;;;;;;;4.40;2.77;;;;;;;;;;5062980;27;89310;-75
2023/12/13 18:13:16;;;;;;;3.23;2.63;;;;;;;;;;5062686;27;88463;-73
2023/12/13 18:15:49;;;;;;;4.33;2.83;;;;;;;;;;5069070;27;87487;-73
2023/12/13 18:18:19;;;;;;;5.57;2.27;;;;;;;;;;5070034;27;89716;-71
2023/12/13 18:20:47;;;;;;;3.80;2.53;;;;;;;;;;5070439;27;89089;-71
2023/12/13 18:23:15;;;;;;;4.93;2.73;;;;;;;;;;5051555;27;87957;-71
2023/12/13 18:25:46;;;;;;;6.17;3.40;;;;;;;;;;5070192;27;87586;-73
2023/12/13 18:28:14;;;;;;;5.20;2.90;;;;;;;;;;5068339;27;90235;-74
2023/12/13 18:30:44;;;;;;;5.60;3.30;;;;;;;;;;5064635;27;89092;-73
2023/12/13 18:33:14;;;;;;;4.47;2.80;;;;;;;;;;5068205;27;88160;-75
2023/12/13 18:35:42;;;;;;;3.57;2.70;;;;;;;;;;5070454;27;87470;-73
2023/12/13 18:38:11;;;;;;;5.90;3.57;;;;;;;;;;5069091;27;89626;-73
2023/12/13 18:40:39;;;;;;;4.43;3.23;;;;;;;;;;5073661;27;88148;-72
2023/12/13 18:43:08;;;;;;;4.90;2.83;;;;;;;;;;5070525;27;87507;-73
2023/12/13 18:45:37;;;;;;;7.13;3.27;;;;;;;;;;5072935;27;87604;-73
2023/12/13 18:48:06;;;;;;;6.40;4.17;;;;;;;;;;5067300;27;89668;-74
2023/12/13 18:50:35;;;;;;;8.93;4.73;;;;;;;;;;5066561;27;89039;-74
2023/12/13 18:53:04;;;;;;;6.30;4.17;;;;;;;;;;5071054;27;87981;-74
2023/12/13 18:55:32;;;;;;;8.27;5.10;;;;;;;;;;5070609;27;87671;-75
2023/12/13 18:58:01;;;;;;;8.73;4.93;;;;;;;;;;5060684;27;92757;-75
2023/12/13 19:00:29;;;;;;;8.70;6.07;;;;;;;;;;5066771;27;89536;-73
2023/12/13 19:02:57;;;;;;;8.63;5.27;;;;;;;;;;5069181;27;87658;-74
2023/12/13 19:05:26;;;;;;;6.43;4.77;;;;;;;;;;5070695;27;87812;-75
2023/12/13 19:07:59;;;;;;;8.60;5.03;;;;;;;;;;5067704;27;89630;-74
2023/12/13 19:10:28;;;;;;;10.27;5.97;;;;;;;;;;5067437;27;89228;-73
2023/12/13 19:12:57;;;;;;;7.37;5.00;;;;;;;;;;5068427;27;87505;-73
2023/12/13 19:15:26;;;;;;;10.40;5.67;;;;;;;;;;5069062;27;87632;-75
2023/12/13 19:17:54;;;;;;;9.73;6.33;;;;;;;;;;5070841;27;89904;-74
2023/12/13 19:20:22;;;;;;;10.63;5.27;;;;;;;;;;5073047;27;89081;-71
2023/12/13 19:22:51;;;;;;;10.33;5.77;;;;;;;;;;5067442;27;92105;-73
2023/12/13 19:25:20;;;;;;;8.77;5.23;;;;;;;;;;5068737;27;87484;-73
2023/12/13 19:27:49;;;;;;;7.17;4.77;;;;;;;;;;5071145;27;89786;-73
2023/12/13 19:30:17;;;;;;;7.70;4.83;;;;;;;;;;5072896;27;88960;-73
2023/12/13 19:32:46;;;;;;;9.80;5.93;;;;;;;;;;5072690;27;88080;-73
2023/12/13 19:35:14;;;;;;;11.07;5.17;;;;;;;;;;5068676;27;87583;-72
2023/12/13 19:37:42;;;;;;;7.67;5.27;;;;;;;;;;5069894;27;88678;-72
2023/12/13 19:40:11;;;;;;;9.70;5.43;;;;;;;;;;5072302;27;89073;-72
2023/12/13 19:42:44;;;;;;;7.70;5.10;;;;;;;;;;5072895;27;87618;-73
2023/12/13 19:45:13;;;;;;;7.70;5.37;;;;;;;;;;5062513;27;87636;-74
2023/12/13 19:47:41;;;;;;;8.87;5.27;;;;;;;;;;5068833;27;89682;-75
2023/12/13 19:50:10;;;;;;;7.37;5.60;;;;;;;;;;5069888;27;88954;-75
2023/12/13 19:52:39;;;;;;;6.63;5.07;;;;;;;;;;5058587;27;87604;-74
2023/12/13 19:55:12;;;;;;;11.27;5.20;;;;;;;;;;5064653;27;87696;-75
2023/12/13 19:57:42;;;;;;;8.47;4.60;;;;;;;;;;5066261;27;88420;-74
2023/12/13 20:00:11;;;;;;;8.10;5.30;;;;;;;;;;5048209;27;89078;-73
2023/12/13 20:02:39;;;;;;;9.60;6.53;;;;;;;;;;5063244;27;87744;-74
2023/12/13 20:05:07;;;;;;;7.40;4.83;;;;;;;;;;5069116;27;87512;-74
2023/12/13 20:07:36;;;;;;;8.17;5.07;;;;;;;;;;5058180;27;88236;-73
2023/12/13 20:10:05;;;;;;;8.23;4.73;;;;;;;;;;5058067;27;89254;-73
2023/12/13 20:12:33;;;;;;;7.90;4.37;;;;;;;;;;5058852;27;88664;-73
2023/12/13 20:15:03;;;;;;;8.97;5.40;;;;;;;;;;5060960;27;88130;-74
2023/12/13 20:17:32;;;;;;;7.37;4.27;;;;;;;;;;5064594;27;88552;-74
2023/12/13 20:20:01;;;;;;;6.33;4.43;;;;;;;;;;5059502;27;89336;-73
2023/12/13 20:22:30;;;;;;;7.57;5.10;;;;;;;;;;5057368;27;87450;-73
2023/12/13 20:24:58;;;;;;;6.73;4.40;;;;;;;;;;5059785;27;87668;-76
2023/12/13 20:27:27;;;;;;;10.63;4.77;;;;;;;;;;5058617;27;89895;-76
2023/12/13 20:29:55;;;;;;;10.53;5.13;;;;;;;;;;5056109;27;89223;-75
2023/12/13 20:32:25;;;;;;;7.40;4.57;;;;;;;;;;5060852;27;87380;-75
2023/12/13 20:34:53;;;;;;;6.03;4.63;;;;;;;;;;5057148;27;87698;-74
2023/12/13 20:37:24;;;;;;;5.37;3.93;;;;;;;;;;5057247;27;91623;-74
2023/12/13 20:39:54;;;;;;;5.17;4.27;;;;;;;;;;5064479;27;88962;-75
2023/12/13 20:42:22;;;;;;;8.47;4.43;;;;;;;;;;5073046;27;87500;-75
2023/12/13 20:44:51;;;;;;;10.37;4.40;;;;;;;;;;5063147;27;87765;-74
2023/12/13 20:47:19;;;;;;;6.53;4.43;;;;;;;;;;5063812;27;89764;-73
2023/12/13 20:49:49;;;;;;;5.23;3.47;;;;;;;;;;5063852;27;89085;-72
2023/12/13 20:52:18;;;;;;;9.00;4.13;;;;;;;;;;5062975;27;87527;-74
2023/12/13 20:54:46;;;;;;;9.00;3.33;;;;;;;;;;5073651;27;87627;-73
2023/12/13 20:57:15;;;;;;;6.33;4.00;;;;;;;;;;5063115;27;89535;-73
2023/12/13 20:59:43;;;;;;;4.63;3.50;;;;;;;;;;5070454;27;91901;-71
2023/12/13 21:02:11;;;;;;;6.53;3.77;;;;;;;;;;5070689;27;87908;-72
2023/12/13 21:04:40;;;;;;;4.97;3.20;;;;;;;;;;5063164;27;87564;-74
2023/12/13 21:07:10;;;;;;;5.70;3.63;;;;;;;;;;5055585;27;91854;-73
2023/12/13 21:09:38;;;;;;;5.87;3.20;;;;;;;;;;5060447;27;89125;-71
2023/12/13 21:12:07;;;;;;;5.33;3.10;;;;;;;;;;5064490;27;87486;-74
2023/12/13 21:14:35;;;;;;;5.23;3.40;;;;;;;;;;5066699;27;88347;-77
2023/12/13 21:17:31;;;;;;;5.87;3.47;;;;;;;;;;5072032;27;89583;-76
2023/12/13 21:20:06;;;;;;;5.17;3.43;;;;;;;;;;5007338;27;89660;-71
2023/12/13 21:22:38;;;;;;;3.53;2.90;;;;;;;;;;5058860;27;87567;-72
2023/12/13 21:25:08;;;;;;;5.73;2.87;;;;;;;;;;5074503;27;88100;-73
2023/12/13 21:27:36;;;;;;;4.33;2.80;;;;;;;;;;5058973;27;88540;-73
2023/12/13 21:30:06;;;;;;;5.37;3.33;;;;;;;;;;5058340;27;89155;-73
2023/12/13 21:32:43;;;;;;;5.00;2.97;;;;;;;;;;5058964;27;88909;-72
2023/12/13 21:35:12;;;;;;;5.80;2.63;;;;;;;;;;5055905;27;87621;-73
2023/12/13 21:37:42;;;;;;;4.63;3.50;;;;;;;;;;5069400;27;88380;-72
2023/12/13 21:40:11;;;;;;;4.53;2.93;;;;;;;;;;5069160;27;89100;-72
2023/12/13 21:42:39;;;;;;;8.63;2.77;;;;;;;;;;5060406;27;87566;-74
2023/12/13 21:45:17;;;;;;;4.83;2.87;;;;;;;;;;5077631;27;88258;-74
2023/12/13 21:47:47;;;;;;;5.33;2.53;;;;;;;;;;5069589;27;89914;-73
2023/12/13 21:50:25;;;;;;;;;;;;;;;;;;;;;
2023/12/13 21:56:31;;;;;;;3.27;2.20;;;;;;;;;;5058842;27;87457;-74
2023/12/13 21:59:16;;;;;;;8.07;2.70;;;;;;;;;;5056043;27;89654;-73
2023/12/13 22:01:50;;;;;;;3.70;2.60;;;;;;;;;;5058285;27;89084;-74
2023/12/13 22:07:41;;;;;;;3.60;2.53;;;;;;;;;;5007361;27;87871;-71
2023/12/13 22:10:17;;;;;;;4.67;2.50;;;;;;;;;;5020980;27;90323;-76
2023/12/13 22:13:04;;;;;;;3.03;2.57;;;;;;;;;;5053587;27;87874;-75
2023/12/13 22:15:34;;;;;;;4.80;2.00;;;;;;;;;;5062121;27;87606;-73
2023/12/13 22:18:05;;;;;;;3.80;2.00;;;;;;;;;;5064584;27;87622;-69
2023/12/13 22:20:33;;;;;;;3.93;2.40;;;;;;;;;;5063044;27;89694;-69
2023/12/13 22:23:03;;;;;;;2.83;2.10;;;;;;;;;;5067009;27;88936;-69
2023/12/13 22:25:37;;;;;;;3.87;2.70;;;;;;;;;;5076750;27;87474;-68
2023/12/13 22:28:12;;;;;;;3.97;2.50;;;;;;;;;;5076430;27;87369;-68
2023/12/13 22:30:41;;;;;;;3.53;2.07;;;;;;;;;;5066789;27;88650;-68
2023/12/13 22:33:36;;;;;;;3.67;2.20;;;;;;;;;;5075551;27;89001;-68
2023/12/13 22:36:14;;;;;;;3.60;2.90;;;;;;;;;;5079723;27;87371;-68
2023/12/13 22:38:42;;;;;;;3.90;2.40;;;;;;;;;;5084441;27;87633;-68
2023/12/13 22:41:11;;;;;;;3.30;2.30;;;;;;;;;;5083983;27;88724;-68
2023/12/13 22:43:39;;;;;;;2.67;2.47;;;;;;;;;;5083765;27;87984;-68
2023/12/13 22:46:11;;;;;;;3.60;2.73;;;;;;;;;;5084162;27;87597;-68
2023/12/13 22:48:39;;;;;;;3.57;2.60;;;;;;;;;;5072043;27;87512;-68
2023/12/13 22:51:08;;;;;;;4.53;1.87;;;;;;;;;;5062876;27;89581;-68
2023/12/13 22:53:39;;;;;;;2.27;2.00;;;;;;;;;;5063295;27;89714;-68
2023/12/13 22:56:09;;;;;;;6.00;3.03;;;;;;;;;;5064206;27;87376;-68
2023/12/13 22:58:38;;;;;;;3.97;2.50;;;;;;;;;;5072923;27;87527;-72
2023/12/13 23:01:11;;;;;;;3.40;2.47;;;;;;;;;;5082141;27;89944;-72
2023/12/13 23:03:45;;;;;;;4.37;2.80;;;;;;;;;;5081102;27;89156;-72
2023/12/13 23:06:24;;;;;;;2.17;1.67;;;;;;;;;;5084350;27;87289;-72
2023/12/13 23:08:52;;;;;;;3.73;2.40;;;;;;;;;;5084212;27;87569;-72
2023/12/13 23:11:22;;;;;;;4.33;2.53;;;;;;;;;;5070077;27;89637;-67
2023/12/13 23:13:50;;;;;;;3.70;2.50;;;;;;;;;;5063399;27;88987;-67
2023/12/13 23:16:20;;;;;;;4.23;2.63;;;;;;;;;;5062745;27;87584;-67
2023/12/13 23:19:03;;;;;;;3.53;2.43;;;;;;;;;;5063125;27;87435;-67
2023/12/13 23:21:31;;;;;;;5.53;2.77;;;;;;;;;;5062923;27;88527;-67
2023/12/13 23:24:00;;;;;;;4.60;3.07;;;;;;;;;;5061706;27;89063;-66
2023/12/13 23:26:31;;;;;;;3.77;2.70;;;;;;;;;;5062508;27;87497;-68
2023/12/13 23:29:00;;;;;;;2.77;2.07;;;;;;;;;;5062588;27;87548;-68
2023/12/13 23:35:02;;;;;;;3.87;2.60;;;;;;;;;;5062079;27;87345;-67
2023/12/13 23:37:33;;;;;;;4.17;2.73;;;;;;;;;;5062311;27;87564;-68
2023/12/13 23:40:03;;;;;;;3.77;2.67;;;;;;;;;;5063162;27;87576;-68
2023/12/13 23:42:45;;;;;;;4.10;2.93;;;;;;;;;;5017739;28;88376;-68
2023/12/13 23:45:17;;;;;;;2.67;2.43;;;;;;;;;;5019339;28;89095;-67
2023/12/13 23:47:46;;;;;;;3.73;2.77;;;;;;;;;;5020218;28;88160;-68